sensor_id;sensor_type;location;lat;lon;timestamp;pressure;altitude;pressure_sealevel;temperature;humidity
11648;BME280;5880;52.342;9.662;2023-11-18T00:00:50;101792.78;;;10.77;57.14
11648;BME280;5880;52.342;9.662;2023-11-18T00:03:16;101796.13;;;10.79;57.45
11648;BME280;5880;52.342;9.662;2023-11-18T00:05:42;101794.25;;;10.80;57.20
11648;BME280;5880;52.342;9.662;2023-11-18T00:08:08;101782.03;;;10.75;57.05
11648;BME280;5880;52.342;9.662;2023-11-18T00:10:33;101789.00;;;10.78;56.91
11648;BME280;5880;52.342;9.662;2023-11-18T00:12:59;101792.16;;;10.75;56.74
11648;BME280;5880;52.342;9.662;2023-11-18T00:15:27;101787.06;;;10.72;56.68
11648;BME280;5880;52.342;9.662;2023-11-18T00:17:52;101786.22;;;10.71;56.62
11648;BME280;5880;52.342;9.662;2023-11-18T00:20:18;101779.25;;;10.62;56.44
11648;BME280;5880;52.342;9.662;2023-11-18T00:22:45;101785.56;;;10.63;56.51
11648;BME280;5880;52.342;9.662;2023-11-18T00:25:11;101784.31;;;10.59;56.53
11648;BME280;5880;52.342;9.662;2023-11-18T00:27:39;101784.03;;;10.53;56.38
11648;BME280;5880;52.342;9.662;2023-11-18T00:30:06;101787.19;;;10.50;56.12
11648;BME280;5880;52.342;9.662;2023-11-18T00:32:34;101789.69;;;10.45;56.20
11648;BME280;5880;52.342;9.662;2023-11-18T00:35:01;101785.91;;;10.40;55.92
11648;BME280;5880;52.342;9.662;2023-11-18T00:37:26;101777.44;;;10.34;55.98
11648;BME280;5880;52.342;9.662;2023-11-18T00:39:52;101779.94;;;10.29;55.91
11648;BME280;5880;52.342;9.662;2023-11-18T00:42:18;101783.06;;;10.26;55.96
11648;BME280;5880;52.342;9.662;2023-11-18T00:44:44;101773.16;;;10.19;55.92
11648;BME280;5880;52.342;9.662;2023-11-18T00:47:09;101786.16;;;10.17;55.84
11648;BME280;5880;52.342;9.662;2023-11-18T00:49:35;101769.72;;;10.10;55.63
11648;BME280;5880;52.342;9.662;2023-11-18T00:52:01;101790.09;;;10.07;55.72
11648;BME280;5880;52.342;9.662;2023-11-18T00:54:27;101788.81;;;10.03;55.68
11648;BME280;5880;52.342;9.662;2023-11-18T00:56:52;101794.88;;;9.99;55.50
11648;BME280;5880;52.342;9.662;2023-11-18T00:59:18;101797.19;;;9.95;55.50
11648;BME280;5880;52.342;9.662;2023-11-18T01:01:44;101801.34;;;9.91;55.62
11648;BME280;5880;52.342;9.662;2023-11-18T01:04:09;101804.44;;;9.88;55.70
11648;BME280;5880;52.342;9.662;2023-11-18T01:06:35;101813.88;;;9.85;55.41
11648;BME280;5880;52.342;9.662;2023-11-18T01:09:01;101817.44;;;9.79;55.58
11648;BME280;5880;52.342;9.662;2023-11-18T01:11:26;101820.53;;;9.76;55.51
11648;BME280;5880;52.342;9.662;2023-11-18T01:13:52;101809.59;;;9.69;55.37
11648;BME280;5880;52.342;9.662;2023-11-18T01:16:21;101820.28;;;9.71;55.44
11648;BME280;5880;52.342;9.662;2023-11-18T01:18:47;101823.59;;;9.66;55.50
11648;BME280;5880;52.342;9.662;2023-11-18T01:21:13;101833.88;;;9.64;55.51
11648;BME280;5880;52.342;9.662;2023-11-18T01:23:39;101836.16;;;9.61;55.49
11648;BME280;5880;52.342;9.662;2023-11-18T01:26:10;101844.75;;;9.58;55.56
11648;BME280;5880;52.342;9.662;2023-11-18T01:28:38;101843.63;;;9.52;55.49
11648;BME280;5880;52.342;9.662;2023-11-18T01:31:07;101840.72;;;9.54;55.75
11648;BME280;5880;52.342;9.662;2023-11-18T01:33:39;101837.75;;;9.48;55.86
11648;BME280;5880;52.342;9.662;2023-11-18T01:36:08;101842.81;;;9.51;55.74
11648;BME280;5880;52.342;9.662;2023-11-18T01:38:36;101846.59;;;9.50;55.73
11648;BME280;5880;52.342;9.662;2023-11-18T01:41:06;101854.78;;;9.50;55.80
11648;BME280;5880;52.342;9.662;2023-11-18T01:43:33;101839.81;;;9.46;56.15
11648;BME280;5880;52.342;9.662;2023-11-18T01:46:05;101858.13;;;9.52;56.07
11648;BME280;5880;52.342;9.662;2023-11-18T01:48:37;101854.78;;;9.50;56.37
11648;BME280;5880;52.342;9.662;2023-11-18T01:51:06;101852.94;;;9.58;56.37
11648;BME280;5880;52.342;9.662;2023-11-18T01:53:34;101853.56;;;9.60;56.33
11648;BME280;5880;52.342;9.662;2023-11-18T01:56:03;101850.66;;;9.61;56.42
11648;BME280;5880;52.342;9.662;2023-11-18T01:58:31;101855.53;;;9.66;56.64
11648;BME280;5880;52.342;9.662;2023-11-18T02:00:58;101854.50;;;9.67;56.53
11648;BME280;5880;52.342;9.662;2023-11-18T02:03:23;101861.06;;;9.72;56.71
11648;BME280;5880;52.342;9.662;2023-11-18T02:05:51;101860.47;;;9.77;56.91
11648;BME280;5880;52.342;9.662;2023-11-18T02:08:17;101848.72;;;9.77;56.65
11648;BME280;5880;52.342;9.662;2023-11-18T02:11:03;101856.69;;;9.78;56.80
11648;BME280;5880;52.342;9.662;2023-11-18T02:13:36;101864.94;;;9.85;57.08
11648;BME280;5880;52.342;9.662;2023-11-18T02:16:04;101872.72;;;9.88;56.99
11648;BME280;5880;52.342;9.662;2023-11-18T02:18:32;101868.13;;;9.88;57.02
11648;BME280;5880;52.342;9.662;2023-11-18T02:20:59;101866.66;;;9.92;57.11
11648;BME280;5880;52.342;9.662;2023-11-18T02:23:26;101865.47;;;9.95;57.27
11648;BME280;5880;52.342;9.662;2023-11-18T02:25:52;101863.16;;;9.99;57.01
11648;BME280;5880;52.342;9.662;2023-11-18T02:28:19;101869.09;;;10.02;57.15
11648;BME280;5880;52.342;9.662;2023-11-18T02:30:45;101869.69;;;10.04;57.05
11648;BME280;5880;52.342;9.662;2023-11-18T02:33:27;101875.63;;;10.08;57.08
11648;BME280;5880;52.342;9.662;2023-11-18T02:36:10;101872.72;;;10.09;57.31
11648;BME280;5880;52.342;9.662;2023-11-18T02:38:47;101871.66;;;10.10;57.44
11648;BME280;5880;52.342;9.662;2023-11-18T02:41:17;101862.44;;;10.11;57.37
11648;BME280;5880;52.342;9.662;2023-11-18T02:43:47;101864.94;;;10.13;57.09
11648;BME280;5880;52.342;9.662;2023-11-18T02:46:13;101867.47;;;10.14;57.37
11648;BME280;5880;52.342;9.662;2023-11-18T02:48:40;101862.84;;;10.15;57.23
11648;BME280;5880;52.342;9.662;2023-11-18T02:51:07;101869.38;;;10.14;57.26
11648;BME280;5880;52.342;9.662;2023-11-18T02:53:34;101871.06;;;10.15;57.29
11648;BME280;5880;52.342;9.662;2023-11-18T02:56:00;101868.50;;;10.13;57.39
11648;BME280;5880;52.342;9.662;2023-11-18T02:58:29;101863.50;;;10.17;57.11
11648;BME280;5880;52.342;9.662;2023-11-18T03:00:56;101864.34;;;10.18;57.09
11648;BME280;5880;52.342;9.662;2023-11-18T03:03:22;101855.97;;;10.19;57.33
11648;BME280;5880;52.342;9.662;2023-11-18T03:05:48;101857.63;;;10.20;57.33
11648;BME280;5880;52.342;9.662;2023-11-18T03:08:15;101852.81;;;10.22;57.49
11648;BME280;5880;52.342;9.662;2023-11-18T03:10:41;101856.19;;;10.24;57.38
11648;BME280;5880;52.342;9.662;2023-11-18T03:13:10;101859.38;;;10.28;57.42
11648;BME280;5880;52.342;9.662;2023-11-18T03:15:37;101856.47;;;10.29;57.34
11648;BME280;5880;52.342;9.662;2023-11-18T03:18:03;101859.84;;;10.31;57.70
11648;BME280;5880;52.342;9.662;2023-11-18T03:20:33;101856.09;;;10.32;57.47
11648;BME280;5880;52.342;9.662;2023-11-18T03:23:00;101862.38;;;10.33;57.51
11648;BME280;5880;52.342;9.662;2023-11-18T03:25:26;101859.84;;;10.31;57.56
11648;BME280;5880;52.342;9.662;2023-11-18T03:27:52;101850.72;;;10.24;57.65
11648;BME280;5880;52.342;9.662;2023-11-18T03:30:20;101868.88;;;10.32;57.61
11648;BME280;5880;52.342;9.662;2023-11-18T03:32:46;101865.31;;;10.31;57.73
11648;BME280;5880;52.342;9.662;2023-11-18T03:35:12;101868.69;;;10.33;57.57
11648;BME280;5880;52.342;9.662;2023-11-18T03:37:39;101865.78;;;10.35;57.51
11648;BME280;5880;52.342;9.662;2023-11-18T03:40:15;101872.50;;;10.39;57.63
11648;BME280;5880;52.342;9.662;2023-11-18T03:42:44;101870.63;;;10.40;57.84
11648;BME280;5880;52.342;9.662;2023-11-18T03:45:12;101871.25;;;10.42;57.89
11648;BME280;5880;52.342;9.662;2023-11-18T03:47:43;101874.63;;;10.44;57.58
11648;BME280;5880;52.342;9.662;2023-11-18T03:50:09;101868.31;;;10.43;57.64
11648;BME280;5880;52.342;9.662;2023-11-18T03:52:36;101867.91;;;10.46;57.92
11648;BME280;5880;52.342;9.662;2023-11-18T03:55:04;101872.16;;;10.49;57.70
11648;BME280;5880;52.342;9.662;2023-11-18T03:57:30;101865.81;;;10.48;57.63
11648;BME280;5880;52.342;9.662;2023-11-18T03:59:55;101860.13;;;10.43;57.54
11648;BME280;5880;52.342;9.662;2023-11-18T04:02:21;101866.25;;;10.45;57.54
11648;BME280;5880;52.342;9.662;2023-11-18T04:04:47;101866.03;;;10.47;57.66
11648;BME280;5880;52.342;9.662;2023-11-18T04:07:14;101859.09;;;10.44;57.59
11648;BME280;5880;52.342;9.662;2023-11-18T04:09:39;101859.72;;;10.46;57.63
11648;BME280;5880;52.342;9.662;2023-11-18T04:12:09;101861.41;;;10.47;57.66
11648;BME280;5880;52.342;9.662;2023-11-18T04:14:36;101863.09;;;10.48;57.64
11648;BME280;5880;52.342;9.662;2023-11-18T04:17:03;101859.53;;;10.48;57.70
11648;BME280;5880;52.342;9.662;2023-11-18T04:19:28;101860.34;;;10.48;57.70
11648;BME280;5880;52.342;9.662;2023-11-18T04:21:54;101847.53;;;10.42;57.71
11648;BME280;5880;52.342;9.662;2023-11-18T04:24:20;101851.50;;;10.46;57.59
11648;BME280;5880;52.342;9.662;2023-11-18T04:26:45;101844.38;;;10.45;57.82
11648;BME280;5880;52.342;9.662;2023-11-18T04:29:13;101845.84;;;10.48;57.84
11648;BME280;5880;52.342;9.662;2023-11-18T04:31:39;101850.47;;;10.47;57.70
11648;BME280;5880;52.342;9.662;2023-11-18T04:34:05;101850.47;;;10.47;57.92
11648;BME280;5880;52.342;9.662;2023-11-18T04:36:31;101842.88;;;10.43;57.92
11648;BME280;5880;52.342;9.662;2023-11-18T04:38:57;101835.75;;;10.48;57.77
11648;BME280;5880;52.342;9.662;2023-11-18T04:41:22;101841.03;;;10.50;57.66
11648;BME280;5880;52.342;9.662;2023-11-18T04:43:49;101835.56;;;10.50;57.66
11648;BME280;5880;52.342;9.662;2023-11-18T04:46:14;101835.56;;;10.50;58.03
11648;BME280;5880;52.342;9.662;2023-11-18T04:48:40;101832.41;;;10.53;58.05
11648;BME280;5880;52.342;9.662;2023-11-18T04:51:06;101835.97;;;10.53;57.99
11648;BME280;5880;52.342;9.662;2023-11-18T04:53:32;101832.63;;;10.51;57.75
11648;BME280;5880;52.342;9.662;2023-11-18T04:55:57;101825.47;;;10.50;57.78
11648;BME280;5880;52.342;9.662;2023-11-18T04:58:23;101835.16;;;10.53;57.93
11648;BME280;5880;52.342;9.662;2023-11-18T05:00:49;101829.69;;;10.53;58.04
11648;BME280;5880;52.342;9.662;2023-11-18T05:03:16;101819.81;;;10.52;57.83
11648;BME280;5880;52.342;9.662;2023-11-18T05:05:42;101818.97;;;10.51;57.54
11648;BME280;5880;52.342;9.662;2023-11-18T05:08:19;101819.41;;;10.55;57.82
11648;BME280;5880;52.342;9.662;2023-11-18T05:10:49;101819.59;;;10.53;57.97
11648;BME280;5880;52.342;9.662;2023-11-18T05:13:16;101817.72;;;10.54;57.72
11648;BME280;5880;52.342;9.662;2023-11-18T05:15:46;101837.69;;;10.54;57.75
11648;BME280;5880;52.342;9.662;2023-11-18T05:18:13;101826.75;;;10.54;57.75
11648;BME280;5880;52.342;9.662;2023-11-18T05:20:41;101806.56;;;10.49;57.68
11648;BME280;5880;52.342;9.662;2023-11-18T05:23:07;101817.91;;;10.52;57.62
11648;BME280;5880;52.342;9.662;2023-11-18T05:25:36;101812.03;;;10.49;57.88
11648;BME280;5880;52.342;9.662;2023-11-18T05:28:02;101815.38;;;10.51;57.59
11648;BME280;5880;52.342;9.662;2023-11-18T05:30:30;101814.53;;;10.50;57.69
11648;BME280;5880;52.342;9.662;2023-11-18T05:32:57;101812.63;;;10.51;57.73
11648;BME280;5880;52.342;9.662;2023-11-18T05:35:24;101810.97;;;10.50;57.77
11648;BME280;5880;52.342;9.662;2023-11-18T05:37:54;101799.38;;;10.48;57.95
11648;BME280;5880;52.342;9.662;2023-11-18T05:40:20;101798.34;;;10.49;57.86
11648;BME280;5880;52.342;9.662;2023-11-18T05:42:47;101797.50;;;10.48;57.70
11648;BME280;5880;52.342;9.662;2023-11-18T05:45:14;101788.03;;;10.44;57.68
11648;BME280;5880;52.342;9.662;2023-11-18T05:47:56;101790.31;;;10.41;57.56
11648;BME280;5880;52.342;9.662;2023-11-18T05:50:23;101790.72;;;10.38;57.39
11648;BME280;5880;52.342;9.662;2023-11-18T05:52:54;101786.69;;;10.33;57.36
11648;BME280;5880;52.342;9.662;2023-11-18T05:55:20;101783.91;;;10.27;57.28
11648;BME280;5880;52.342;9.662;2023-11-18T05:57:46;101786.81;;;10.25;57.33
11648;BME280;5880;52.342;9.662;2023-11-18T06:00:14;101783.84;;;10.20;57.21
11648;BME280;5880;52.342;9.662;2023-11-18T06:02:42;101785.09;;;10.18;57.18
11648;BME280;5880;52.342;9.662;2023-11-18T06:05:09;101791.16;;;10.13;57.21
11648;BME280;5880;52.342;9.662;2023-11-18T06:07:35;101792.41;;;10.10;56.94
11648;BME280;5880;52.342;9.662;2023-11-18T06:10:02;101796.59;;;10.06;56.97
11648;BME280;5880;52.342;9.662;2023-11-18T06:12:31;101794.69;;;10.00;56.84
11648;BME280;5880;52.342;9.662;2023-11-18T06:14:58;101794.88;;;9.99;56.90
11648;BME280;5880;52.342;9.662;2023-11-18T06:17:24;101790.84;;;9.94;56.92
11648;BME280;5880;52.342;9.662;2023-11-18T06:19:50;101784.72;;;9.92;57.00
11648;BME280;5880;52.342;9.662;2023-11-18T06:22:16;101786.84;;;9.90;56.87
11648;BME280;5880;52.342;9.662;2023-11-18T06:24:41;101785.13;;;9.89;56.98
11648;BME280;5880;52.342;9.662;2023-11-18T06:27:08;101791.00;;;9.86;56.71
11648;BME280;5880;52.342;9.662;2023-11-18T06:29:34;101792.63;;;9.81;56.97
11648;BME280;5880;52.342;9.662;2023-11-18T06:32:00;101797.06;;;9.82;56.79
11648;BME280;5880;52.342;9.662;2023-11-18T06:34:26;101794.53;;;9.80;56.74
11648;BME280;5880;52.342;9.662;2023-11-18T06:36:53;101796.19;;;9.75;56.96
11648;BME280;5880;52.342;9.662;2023-11-18T06:39:19;101803.31;;;9.76;56.71
11648;BME280;5880;52.342;9.662;2023-11-18T06:41:55;101801.81;;;9.73;56.69
11648;BME280;5880;52.342;9.662;2023-11-18T06:44:21;101802.88;;;9.72;56.66
11648;BME280;5880;52.342;9.662;2023-11-18T06:46:49;101807.69;;;9.70;56.59
11648;BME280;5880;52.342;9.662;2023-11-18T06:49:17;101811.44;;;9.69;56.54
11648;BME280;5880;52.342;9.662;2023-11-18T06:51:43;101826.34;;;9.66;56.87
11648;BME280;5880;52.342;9.662;2023-11-18T06:54:09;101826.75;;;9.63;56.63
11648;BME280;5880;52.342;9.662;2023-11-18T06:56:44;101831.56;;;9.61;56.54
11648;BME280;5880;52.342;9.662;2023-11-18T06:59:12;101829.00;;;9.60;56.57
11648;BME280;5880;52.342;9.662;2023-11-18T07:01:39;101837.41;;;9.58;56.48
11648;BME280;5880;52.342;9.662;2023-11-18T07:04:06;101838.44;;;9.57;56.58
11648;BME280;5880;52.342;9.662;2023-11-18T07:06:36;101839.69;;;9.55;56.58
11648;BME280;5880;52.342;9.662;2023-11-18T07:09:09;101836.94;;;9.55;56.62
11648;BME280;5880;52.342;9.662;2023-11-18T07:11:47;101828.09;;;9.52;56.79
11648;BME280;5880;52.342;9.662;2023-11-18T07:14:13;101822.66;;;9.52;56.71
11648;BME280;5880;52.342;9.662;2023-11-18T07:16:41;101815.69;;;9.50;56.78
11648;BME280;5880;52.342;9.662;2023-11-18T07:19:07;101828.97;;;9.53;56.87
11648;BME280;5880;52.342;9.662;2023-11-18T07:21:35;101829.59;;;9.55;57.07
11648;BME280;5880;52.342;9.662;2023-11-18T07:24:01;101816.59;;;9.57;56.91
11648;BME280;5880;52.342;9.662;2023-11-18T07:26:30;101818.09;;;9.60;57.13
11648;BME280;5880;52.342;9.662;2023-11-18T07:28:55;101819.31;;;9.57;57.20
11648;BME280;5880;52.342;9.662;2023-11-18T07:31:21;101821.09;;;9.65;57.25
11648;BME280;5880;52.342;9.662;2023-11-18T07:33:48;101813.34;;;9.68;57.39
11648;BME280;5880;52.342;9.662;2023-11-18T07:36:18;101812.94;;;9.71;57.50
11648;BME280;5880;52.342;9.662;2023-11-18T07:38:46;101806.44;;;9.72;57.55
11648;BME280;5880;52.342;9.662;2023-11-18T07:41:12;101805.66;;;9.79;57.69
11648;BME280;5880;52.342;9.662;2023-11-18T07:43:55;101827.09;;;9.82;57.66
11648;BME280;5880;52.342;9.662;2023-11-18T07:46:25;101827.53;;;9.85;57.59
11648;BME280;5880;52.342;9.662;2023-11-18T07:48:52;101825.88;;;9.84;57.64
11648;BME280;5880;52.342;9.662;2023-11-18T07:51:19;101826.50;;;9.86;57.73
11648;BME280;5880;52.342;9.662;2023-11-18T07:53:49;101825.09;;;9.90;57.86
11648;BME280;5880;52.342;9.662;2023-11-18T07:56:15;101834.53;;;9.94;57.85
11648;BME280;5880;52.342;9.662;2023-11-18T07:58:45;101841.31;;;9.99;57.88
11648;BME280;5880;52.342;9.662;2023-11-18T08:01:12;101838.16;;;10.02;57.79
11648;BME280;5880;52.342;9.662;2023-11-18T08:03:38;101831.44;;;10.04;57.84
11648;BME280;5880;52.342;9.662;2023-11-18T08:06:07;101825.63;;;10.07;57.97
11648;BME280;5880;52.342;9.662;2023-11-18T08:08:36;101829.84;;;10.10;58.07
11648;BME280;5880;52.342;9.662;2023-11-18T08:11:08;101832.16;;;10.13;58.24
11648;BME280;5880;52.342;9.662;2023-11-18T08:13:35;101826.94;;;10.18;58.26
11648;BME280;5880;52.342;9.662;2023-11-18T08:16:01;101815.16;;;10.18;58.13
11648;BME280;5880;52.342;9.662;2023-11-18T08:18:26;101807.63;;;10.20;58.16
11648;BME280;5880;52.342;9.662;2023-11-18T08:20:54;101820.25;;;10.27;57.94
11648;BME280;5880;52.342;9.662;2023-11-18T08:23:20;101808.13;;;10.30;58.02
11648;BME280;5880;52.342;9.662;2023-11-18T08:25:46;101803.28;;;10.32;58.09
11648;BME280;5880;52.342;9.662;2023-11-18T08:28:12;101802.03;;;10.34;58.34
11648;BME280;5880;52.342;9.662;2023-11-18T08:30:39;101797.03;;;10.38;58.39
11648;BME280;5880;52.342;9.662;2023-11-18T08:33:05;101787.56;;;10.41;58.56
11648;BME280;5880;52.342;9.662;2023-11-18T08:35:37;101793.50;;;10.44;58.42
11648;BME280;5880;52.342;9.662;2023-11-18T08:38:02;101790.34;;;10.47;58.45
11648;BME280;5880;52.342;9.662;2023-11-18T08:40:30;101790.75;;;10.51;58.72
11648;BME280;5880;52.342;9.662;2023-11-18T08:42:56;101789.75;;;10.52;58.48
11648;BME280;5880;52.342;9.662;2023-11-18T08:45:26;101795.44;;;10.57;58.61
11648;BME280;5880;52.342;9.662;2023-11-18T08:47:57;101798.34;;;10.55;58.69
11648;BME280;5880;52.342;9.662;2023-11-18T08:50:24;101812.06;;;10.62;58.53
11648;BME280;5880;52.342;9.662;2023-11-18T08:52:51;101814.78;;;10.62;58.42
11648;BME280;5880;52.342;9.662;2023-11-18T08:55:25;101811.69;;;10.65;58.50
11648;BME280;5880;52.342;9.662;2023-11-18T08:58:05;101815.25;;;10.66;58.32
11648;BME280;5880;52.342;9.662;2023-11-18T09:00:42;101816.09;;;10.66;58.49
11648;BME280;5880;52.342;9.662;2023-11-18T09:03:19;101810.41;;;10.68;58.25
11648;BME280;5880;52.342;9.662;2023-11-18T09:05:55;101810.19;;;10.69;58.10
11648;BME280;5880;52.342;9.662;2023-11-18T09:08:28;101819.88;;;10.72;58.43
11648;BME280;5880;52.342;9.662;2023-11-18T09:11:06;101815.28;;;10.72;58.47
11648;BME280;5880;52.342;9.662;2023-11-18T09:13:34;101810.84;;;10.71;58.44
11648;BME280;5880;52.342;9.662;2023-11-18T09:16:03;101804.34;;;10.72;58.25
11648;BME280;5880;52.342;9.662;2023-11-18T09:18:32;101802.22;;;10.74;58.51
11648;BME280;5880;52.342;9.662;2023-11-18T09:21:01;101795.91;;;10.74;58.43
11648;BME280;5880;52.342;9.662;2023-11-18T09:23:29;101782.47;;;10.72;58.58
11648;BME280;5880;52.342;9.662;2023-11-18T09:25:57;101787.50;;;10.75;58.41
11648;BME280;5880;52.342;9.662;2023-11-18T09:28:24;101787.50;;;10.75;58.46
11648;BME280;5880;52.342;9.662;2023-11-18T09:30:51;101788.78;;;10.80;58.51
11648;BME280;5880;52.342;9.662;2023-11-18T09:33:22;101781.84;;;10.84;58.78
11648;BME280;5880;52.342;9.662;2023-11-18T09:35:52;101781.84;;;10.84;58.74
11648;BME280;5880;52.342;9.662;2023-11-18T09:38:30;101784.19;;;10.87;58.66
11648;BME280;5880;52.342;9.662;2023-11-18T09:40:58;101789.44;;;10.88;58.46
11648;BME280;5880;52.342;9.662;2023-11-18T09:43:33;101786.94;;;10.87;58.66
11648;BME280;5880;52.342;9.662;2023-11-18T09:46:09;101781.88;;;10.90;58.46
11648;BME280;5880;52.342;9.662;2023-11-18T09:48:47;101775.13;;;10.93;58.33
11648;BME280;5880;52.342;9.662;2023-11-18T09:51:23;101771.56;;;10.92;58.39
11648;BME280;5880;52.342;9.662;2023-11-18T09:53:53;101778.50;;;10.95;58.44
11648;BME280;5880;52.342;9.662;2023-11-18T09:56:39;101777.06;;;10.99;58.57
11648;BME280;5880;52.342;9.662;2023-11-18T09:59:17;101781.47;;;11.00;58.71
11648;BME280;5880;52.342;9.662;2023-11-18T10:01:53;101773.25;;;11.00;58.56
11648;BME280;5880;52.342;9.662;2023-11-18T10:04:23;101770.53;;;11.07;58.36
11648;BME280;5880;52.342;9.662;2023-11-18T10:06:54;101774.09;;;11.07;58.57
11648;BME280;5880;52.342;9.662;2023-11-18T10:09:23;101760.22;;;11.09;58.79
11648;BME280;5880;52.342;9.662;2023-11-18T10:12:06;101760.03;;;11.10;58.52
11648;BME280;5880;52.342;9.662;2023-11-18T10:14:34;101751.00;;;11.10;58.55
11648;BME280;5880;52.342;9.662;2023-11-18T10:17:07;101748.25;;;11.10;58.61
11648;BME280;5880;52.342;9.662;2023-11-18T10:19:58;101749.50;;;11.14;58.82
11648;BME280;5880;52.342;9.662;2023-11-18T10:22:38;101748.66;;;11.13;58.84
11648;BME280;5880;52.342;9.662;2023-11-18T10:25:04;101734.16;;;11.13;58.72
11648;BME280;5880;52.342;9.662;2023-11-18T10:27:32;101735.81;;;11.20;58.93
11648;BME280;5880;52.342;9.662;2023-11-18T10:30:07;101736.91;;;11.26;58.93
11648;BME280;5880;52.342;9.662;2023-11-18T10:32:59;101731.84;;;11.30;58.60
11648;BME280;5880;52.342;9.662;2023-11-18T10:35:35;101737.75;;;11.33;58.79
11648;BME280;5880;52.342;9.662;2023-11-18T10:38:04;101734.16;;;11.39;58.78
11648;BME280;5880;52.342;9.662;2023-11-18T10:40:33;101725.31;;;11.44;58.84
11648;BME280;5880;52.342;9.662;2023-11-18T10:43:03;101714.78;;;11.48;58.48
11648;BME280;5880;52.342;9.662;2023-11-18T10:45:38;101726.78;;;11.53;58.35
11648;BME280;5880;52.342;9.662;2023-11-18T10:48:08;101711.41;;;11.52;58.50
11648;BME280;5880;52.342;9.662;2023-11-18T10:50:34;101717.28;;;11.56;58.25
11648;BME280;5880;52.342;9.662;2023-11-18T10:53:01;101702.56;;;11.57;58.15
11648;BME280;5880;52.342;9.662;2023-11-18T10:55:38;101700.66;;;11.57;58.13
11648;BME280;5880;52.342;9.662;2023-11-18T10:58:06;101691.38;;;11.58;58.13
11648;BME280;5880;52.342;9.662;2023-11-18T11:00:47;101680.22;;;11.60;57.93
11648;BME280;5880;52.342;9.662;2023-11-18T11:03:14;101665.91;;;11.58;58.06
11648;BME280;5880;52.342;9.662;2023-11-18T11:05:40;101680.41;;;11.58;57.92
11648;BME280;5880;52.342;9.662;2023-11-18T11:08:08;101660.22;;;11.59;57.78
11648;BME280;5880;52.342;9.662;2023-11-18T11:10:40;101655.38;;;11.55;57.50
11648;BME280;5880;52.342;9.662;2023-11-18T11:13:08;101661.88;;;11.60;57.42
11648;BME280;5880;52.342;9.662;2023-11-18T11:15:41;101652.63;;;11.61;57.31
11648;BME280;5880;52.342;9.662;2023-11-18T11:18:12;101650.94;;;11.60;57.55
11648;BME280;5880;52.342;9.662;2023-11-18T11:20:57;101645.44;;;11.60;57.33
11648;BME280;5880;52.342;9.662;2023-11-18T11:29:45;101632.66;;;11.54;57.17
11648;BME280;5880;52.342;9.662;2023-11-18T11:32:26;101624.19;;;11.56;57.22
11648;BME280;5880;52.342;9.662;2023-11-18T11:35:00;101635.78;;;11.58;57.33
11648;BME280;5880;52.342;9.662;2023-11-18T11:37:34;101635.78;;;11.58;57.40
11648;BME280;5880;52.342;9.662;2023-11-18T11:40:03;101617.88;;;11.55;57.10
11648;BME280;5880;52.342;9.662;2023-11-18T11:42:40;101625.91;;;11.57;57.00
11648;BME280;5880;52.342;9.662;2023-11-18T11:45:09;101620.41;;;11.57;57.06
11648;BME280;5880;52.342;9.662;2023-11-18T11:47:48;101622.28;;;11.56;56.95
11648;BME280;5880;52.342;9.662;2023-11-18T11:50:31;101617.44;;;11.58;57.05
11648;BME280;5880;52.342;9.662;2023-11-18T11:53:11;101617.25;;;11.60;57.00
11648;BME280;5880;52.342;9.662;2023-11-18T11:55:55;101606.28;;;11.60;56.80
11648;BME280;5880;52.342;9.662;2023-11-18T11:58:35;101585.22;;;11.60;57.22
11648;BME280;5880;52.342;9.662;2023-11-18T12:01:25;101574.88;;;11.62;56.88
11648;BME280;5880;52.342;9.662;2023-11-18T12:03:58;101580.38;;;11.62;56.88
11648;BME280;5880;52.342;9.662;2023-11-18T12:06:33;101571.94;;;11.64;56.93
11648;BME280;5880;52.342;9.662;2023-11-18T12:09:03;101564.78;;;11.63;57.16
11648;BME280;5880;52.342;9.662;2023-11-18T12:11:38;101573.16;;;11.68;56.93
11648;BME280;5880;52.342;9.662;2023-11-18T12:14:11;101570.44;;;11.68;56.91
11648;BME280;5880;52.342;9.662;2023-11-18T12:17:07;101585.38;;;11.72;56.76
11648;BME280;5880;52.342;9.662;2023-11-18T12:19:36;101579.28;;;11.70;56.86
11648;BME280;5880;52.342;9.662;2023-11-18T12:22:20;101571.28;;;11.69;56.71
11648;BME280;5880;52.342;9.662;2023-11-18T12:33:00;101572.53;;;11.73;56.74
11648;BME280;5880;52.342;9.662;2023-11-18T12:41:43;101560.09;;;11.70;57.00
11648;BME280;5880;52.342;9.662;2023-11-18T12:44:30;101566.84;;;11.74;56.63
11648;BME280;5880;52.342;9.662;2023-11-18T12:47:02;101556.94;;;11.73;56.75
11648;BME280;5880;52.342;9.662;2023-11-18T12:49:41;101552.31;;;11.74;56.77
11648;BME280;5880;52.342;9.662;2023-11-18T12:52:10;101550.19;;;11.76;56.59
11648;BME280;5880;52.342;9.662;2023-11-18T12:54:37;101540.91;;;11.77;56.69
11648;BME280;5880;52.342;9.662;2023-11-18T12:57:04;101542.59;;;11.78;56.75
11648;BME280;5880;52.342;9.662;2023-11-18T12:59:36;101544.28;;;11.79;56.80
11648;BME280;5880;52.342;9.662;2023-11-18T13:02:10;101532.47;;;11.78;56.84
11648;BME280;5880;52.342;9.662;2023-11-18T13:04:45;101541.97;;;11.76;56.48
11648;BME280;5880;52.342;9.662;2023-11-18T13:07:14;101536.31;;;11.71;56.63
11648;BME280;5880;52.342;9.662;2023-11-18T13:09:41;101535.03;;;11.73;56.65
11648;BME280;5880;52.342;9.662;2023-11-18T13:12:09;101532.72;;;11.70;56.38
11648;BME280;5880;52.342;9.662;2023-11-18T13:14:38;101527.88;;;11.66;56.24
11648;BME280;5880;52.342;9.662;2023-11-18T13:17:09;101536.53;;;11.69;56.45
11648;BME280;5880;52.342;9.662;2023-11-18T13:19:37;101538.84;;;11.66;56.63
11648;BME280;5880;52.342;9.662;2023-11-18T13:22:06;101541.38;;;11.67;56.49
11648;BME280;5880;52.342;9.662;2023-11-18T13:24:36;101529.78;;;11.65;56.47
11648;BME280;5880;52.342;9.662;2023-11-18T13:27:04;101527.50;;;11.62;56.47
11648;BME280;5880;52.342;9.662;2023-11-18T13:29:35;101530.63;;;11.66;56.30
11648;BME280;5880;52.342;9.662;2023-11-18T13:32:02;101530.63;;;11.66;56.63
11648;BME280;5880;52.342;9.662;2023-11-18T13:34:31;101528.13;;;11.64;56.28